createdAt,value
2023-02-19T00:01:33.712Z,81.78
2023-02-19T00:04:24.890Z,81.74
2023-02-19T00:07:16.015Z,81.67
2023-02-19T00:10:07.507Z,81.67
2023-02-19T00:12:58.869Z,81.72
2023-02-19T00:15:51.964Z,81.63
2023-02-19T00:18:43.357Z,81.48
2023-02-19T00:21:35.548Z,81.39
2023-02-19T00:24:27.017Z,81.25
2023-02-19T00:27:18.162Z,81.24
2023-02-19T00:30:10.169Z,81.19
2023-02-19T00:32:53.944Z,81.45
2023-02-19T00:35:43.697Z,81.25
2023-02-19T00:38:37.522Z,81.14
2023-02-19T00:41:29.149Z,81.07
2023-02-19T00:44:13.301Z,81.11
2023-02-19T00:47:06.873Z,81.13
2023-02-19T00:49:57.913Z,81.17
2023-02-19T00:52:49.985Z,81.18
2023-02-19T00:55:40.958Z,81.15
2023-02-19T00:58:32.005Z,81.12
2023-02-19T01:01:23.389Z,81.08
2023-02-19T01:04:16.521Z,81.07
2023-02-19T01:07:10.031Z,81.05
2023-02-19T01:09:59.630Z,81.05
2023-02-19T01:12:49.071Z,81.06
2023-02-19T01:15:38.547Z,81.04
2023-02-19T01:18:31.748Z,80.98
2023-02-19T01:21:23.572Z,80.91
2023-02-19T01:24:16.807Z,80.86
2023-02-19T01:27:07.913Z,80.91
2023-02-19T01:30:00.539Z,80.89
2023-02-19T01:32:51.731Z,80.91
2023-02-19T01:35:42.742Z,80.90
2023-02-19T01:38:33.903Z,80.90
2023-02-19T01:41:26.395Z,80.91
2023-02-19T01:44:29.959Z,81.03
2023-02-19T01:47:22.236Z,81.10
2023-02-19T01:50:13.378Z,81.15
2023-02-19T01:52:56.992Z,81.16
2023-02-19T01:55:49.652Z,81.22
2023-02-19T01:58:41.209Z,81.25
2023-02-19T02:01:32.401Z,81.23
2023-02-19T02:04:16.936Z,81.23
2023-02-19T02:07:29.985Z,81.42
2023-02-19T02:10:24.117Z,81.48
2023-02-19T02:13:06.379Z,81.49
2023-02-19T02:16:00.960Z,81.66
2023-02-19T02:18:54.624Z,81.77
2023-02-19T02:21:50.812Z,81.87
2023-02-19T02:25:04.503Z,81.88
2023-02-19T02:28:00.954Z,81.68
2023-02-19T02:30:53.798Z,81.61
2023-02-19T02:33:51.050Z,81.66
2023-02-19T02:36:44.685Z,81.62
2023-02-19T02:39:37.789Z,81.60
2023-02-19T02:42:29.312Z,81.58
2023-02-19T02:45:36.898Z,81.56
2023-02-19T02:48:31.837Z,81.55
2023-02-19T02:51:26.245Z,81.55
2023-02-19T02:54:53.568Z,81.48
2023-02-19T02:57:44.635Z,81.16
2023-02-19T03:00:53.100Z,81.03
2023-02-19T03:03:45.472Z,81.09
2023-02-19T03:06:38.337Z,81.09
2023-02-19T03:09:32.218Z,81.19
2023-02-19T03:12:41.245Z,81.20
2023-02-19T03:15:53.510Z,81.08
2023-02-19T03:19:05.336Z,81.06
2023-02-19T03:21:59.562Z,81.01
2023-02-19T03:25:11.600Z,81.12
2023-02-19T03:28:04.381Z,81.19
2023-02-19T03:30:57.072Z,81.25
2023-02-19T03:33:51.793Z,81.32
2023-02-19T03:36:45.808Z,81.39
2023-02-19T03:39:44.561Z,81.43
2023-02-19T03:42:42.516Z,81.40
2023-02-19T03:45:39.458Z,81.43
2023-02-19T03:48:35.153Z,81.44
2023-02-19T03:51:34.092Z,81.41
2023-02-19T03:54:20.893Z,81.38
2023-02-19T03:57:02.222Z,81.35
2023-02-19T03:59:57.040Z,81.35
2023-02-19T04:02:50.497Z,81.37
2023-02-19T04:05:46.378Z,81.38
2023-02-19T04:08:38.650Z,81.40
2023-02-19T04:11:32.328Z,81.44
2023-02-19T04:14:22.368Z,81.50
2023-02-19T04:17:19.667Z,81.50
2023-02-19T04:20:12.333Z,81.50
2023-02-19T04:23:04.004Z,81.50
2023-02-19T04:25:49.189Z,81.48
2023-02-19T04:28:43.269Z,81.42
2023-02-19T04:31:36.784Z,81.41
2023-02-19T04:34:28.062Z,81.41
2023-02-19T04:37:19.118Z,81.41
2023-02-19T04:40:01.148Z,81.42
2023-02-19T04:42:52.404Z,81.44
2023-02-19T04:45:43.612Z,81.46
2023-02-19T04:48:34.682Z,81.47
2023-02-19T04:51:25.915Z,81.44
2023-02-19T04:54:17.264Z,81.42
2023-02-19T04:57:08.268Z,81.41
2023-02-19T04:59:59.704Z,81.39
2023-02-19T05:02:51.357Z,81.36
2023-02-19T05:05:36.413Z,81.27
2023-02-19T05:08:27.576Z,81.12
2023-02-19T05:11:19.273Z,81.01
2023-02-19T05:14:10.617Z,80.89
2023-02-19T05:17:01.785Z,80.88
2023-02-19T05:19:53.006Z,80.93
2023-02-19T05:22:44.888Z,80.95
2023-02-19T05:25:36.216Z,80.93
2023-02-19T05:28:29.920Z,80.96
2023-02-19T05:31:21.603Z,80.96
2023-02-19T05:34:14.669Z,80.95
2023-02-19T05:37:05.938Z,80.95
2023-02-19T05:39:59.081Z,80.95
2023-02-19T05:42:50.416Z,80.88
2023-02-19T05:45:43.442Z,80.86
2023-02-19T05:48:34.109Z,80.85
2023-02-19T05:51:26.418Z,80.84
2023-02-19T05:54:17.700Z,80.73
2023-02-19T05:57:08.718Z,80.74
2023-02-19T05:59:59.941Z,80.72
2023-02-19T06:02:51.193Z,80.76
2023-02-19T06:05:42.357Z,80.85
2023-02-19T06:08:33.838Z,81.10
2023-02-19T06:11:26.323Z,81.27
2023-02-19T06:14:17.621Z,81.38
2023-02-19T06:17:09.449Z,81.47
2023-02-19T06:20:00.565Z,81.55
2023-02-19T06:22:53.349Z,81.62
2023-02-19T06:25:44.549Z,81.65
2023-02-19T06:28:38.193Z,81.64
2023-02-19T06:31:29.713Z,81.63
2023-02-19T06:34:22.217Z,81.59
2023-02-19T06:36:57.921Z,81.49
2023-02-19T06:39:49.325Z,81.36
2023-02-19T06:42:41.950Z,81.27
2023-02-19T06:45:33.084Z,81.20
2023-02-19T06:48:24.853Z,81.15
2023-02-19T06:51:18.877Z,81.10
2023-02-19T06:54:11.738Z,81.08
2023-02-19T06:57:03.591Z,81.06
2023-02-19T06:59:55.101Z,81.05
2023-02-19T07:02:47.656Z,81.06
2023-02-19T07:05:39.322Z,81.05
2023-02-19T07:08:30.919Z,81.01
2023-02-19T07:11:22.301Z,81.03
2023-02-19T07:14:15.872Z,81.07
2023-02-19T07:17:07.009Z,81.07
2023-02-19T07:19:58.278Z,81.07
2023-02-19T07:22:49.511Z,80.99
2023-02-19T07:25:41.236Z,81.00
2023-02-19T07:28:32.282Z,80.96
2023-02-19T07:31:16.609Z,80.94
2023-02-19T07:34:08.135Z,80.93
2023-02-19T07:37:01.117Z,80.89
2023-02-19T07:39:52.564Z,80.89
2023-02-19T07:42:44.895Z,80.88
2023-02-19T07:45:36.527Z,80.83
2023-02-19T07:48:27.897Z,80.68
2023-02-19T07:51:20.906Z,80.59
2023-02-19T07:54:12.816Z,80.44
2023-02-19T07:57:03.949Z,80.29
2023-02-19T07:59:55.346Z,80.26
2023-02-19T08:03:00.261Z,80.30
2023-02-19T08:05:53.896Z,80.41
2023-02-19T08:08:45.495Z,80.47
2023-02-19T08:11:57.685Z,80.57
2023-02-19T08:14:48.876Z,80.67
2023-02-19T08:17:41.238Z,80.82
2023-02-19T08:20:32.294Z,80.91
2023-02-19T08:23:23.639Z,81.03
2023-02-19T08:26:15.153Z,81.10
2023-02-19T08:29:06.568Z,81.05
2023-02-19T08:31:57.719Z,80.98
2023-02-19T08:34:49.021Z,80.83
2023-02-19T08:37:40.073Z,80.73
2023-02-19T08:40:31.163Z,80.40
2023-02-19T08:43:23.351Z,80.22
2023-02-19T08:46:14.440Z,80.11
2023-02-19T08:49:07.145Z,80.12
2023-02-19T08:51:58.164Z,80.18
2023-02-19T08:54:49.659Z,80.25
2023-02-19T08:57:41.011Z,80.26
2023-02-19T09:00:36.293Z,80.30
2023-02-19T09:03:27.352Z,80.37
2023-02-19T09:06:14.508Z,80.40
2023-02-19T09:09:06.167Z,80.47
2023-02-19T09:11:57.348Z,80.59
2023-02-19T09:14:48.527Z,80.58
2023-02-19T09:17:39.701Z,80.74
2023-02-19T09:20:30.805Z,80.85
2023-02-19T09:23:23.936Z,80.93
2023-02-19T09:26:15.390Z,80.82
2023-02-19T09:29:06.409Z,80.72
2023-02-19T09:31:59.298Z,80.67
2023-02-19T09:34:50.928Z,80.60
2023-02-19T09:37:42.149Z,80.35
2023-02-19T09:40:33.320Z,80.31
2023-02-19T09:43:29.279Z,80.26
2023-02-19T09:46:28.375Z,80.13
2023-02-19T09:49:21.311Z,79.83
2023-02-19T09:52:16.213Z,79.69
2023-02-19T09:55:27.480Z,79.67
2023-02-19T09:58:24.755Z,79.60
2023-02-19T10:01:14.650Z,79.60
2023-02-19T10:04:06.019Z,79.46
2023-02-19T10:07:02.285Z,79.15
2023-02-19T10:09:56.204Z,79.07
2023-02-19T10:12:51.268Z,79.04
2023-02-19T10:15:42.655Z,79.00
2023-02-19T10:18:39.194Z,79.00
2023-02-19T10:21:30.215Z,78.83
2023-02-19T10:24:25.867Z,78.88
2023-02-19T10:27:17.344Z,78.88
2023-02-19T10:30:31.078Z,78.81
2023-02-19T10:33:22.689Z,78.46
2023-02-19T10:36:34.561Z,78.18
2023-02-19T10:39:35.340Z,77.87
2023-02-19T10:42:26.503Z,78.00
2023-02-19T10:45:21.182Z,77.89
2023-02-19T10:48:24.811Z,77.68
2023-02-19T10:51:36.462Z,77.58
2023-02-19T10:54:29.939Z,77.24
2023-02-19T10:57:33.451Z,77.35
2023-02-19T11:00:27.041Z,77.47
2023-02-19T11:03:22.338Z,77.52
2023-02-19T11:06:13.287Z,77.47
2023-02-19T11:09:04.634Z,77.53
2023-02-19T11:11:55.403Z,77.62
2023-02-19T11:14:47.317Z,77.65
2023-02-19T11:17:38.428Z,77.75
2023-02-19T11:20:22.602Z,77.93
2023-02-19T11:23:16.284Z,78.03
2023-02-19T11:26:08.570Z,77.80
2023-02-19T11:29:00.880Z,77.57
2023-02-19T11:31:52.411Z,77.55
2023-02-19T11:34:45.121Z,77.64
2023-02-19T11:37:36.454Z,77.76
2023-02-19T11:40:21.819Z,77.79
2023-02-19T11:43:08.430Z,77.73
2023-02-19T11:45:55.118Z,77.78
2023-02-19T11:48:55.078Z,77.91
2023-02-19T11:51:54.714Z,77.93
2023-02-19T11:54:52.737Z,77.92
2023-02-19T11:57:47.463Z,78.02
2023-02-19T12:00:43.984Z,78.10
2023-02-19T12:03:44.945Z,78.20
2023-02-19T12:06:41.396Z,78.24
2023-02-19T12:09:39.894Z,78.17
2023-02-19T12:12:48.106Z,78.17
2023-02-19T12:15:48.013Z,78.17
2023-02-19T12:18:56.012Z,78.24
2023-02-19T12:21:56.194Z,78.28
2023-02-19T12:25:06.793Z,78.34
2023-02-19T12:28:19.480Z,78.40
2023-02-19T12:31:19.535Z,78.35
2023-02-19T12:34:17.591Z,78.39
2023-02-19T12:37:17.210Z,78.51
2023-02-19T12:40:18.893Z,78.47
2023-02-19T12:43:15.411Z,78.54
2023-02-19T12:46:09.252Z,78.51
2023-02-19T12:48:56.652Z,78.60
2023-02-19T12:51:49.796Z,78.63
2023-02-19T12:54:43.436Z,78.61
2023-02-19T12:57:36.727Z,78.74
2023-02-19T13:00:32.624Z,78.80
2023-02-19T13:03:21.284Z,78.71
2023-02-19T13:06:18.021Z,78.71
2023-02-19T13:09:13.299Z,78.73
2023-02-19T13:12:10.733Z,78.59
2023-02-19T13:15:02.535Z,78.43
2023-02-19T13:17:56.804Z,78.48
2023-02-19T13:20:49.189Z,78.40
2023-02-19T13:23:49.909Z,78.44
2023-02-19T13:27:02.094Z,78.43
2023-02-19T13:30:03.921Z,78.49
2023-02-19T13:33:20.544Z,78.45
2023-02-19T13:36:18.026Z,78.44
2023-02-19T13:39:09.407Z,78.24
2023-02-19T13:42:00.743Z,78.08
2023-02-19T13:44:57.785Z,78.04
2023-02-19T13:48:10.922Z,78.01
2023-02-19T13:51:21.586Z,78.05
2023-02-19T13:54:26.981Z,78.00
2023-02-19T13:57:30.332Z,78.04
2023-02-19T14:00:51.560Z,78.12
2023-02-19T14:03:46.730Z,78.22
2023-02-19T14:07:02.748Z,78.31
2023-02-19T14:09:53.869Z,78.37
2023-02-19T14:12:46.476Z,78.44
2023-02-19T14:15:45.249Z,78.51
2023-02-19T14:18:46.857Z,78.58
2023-02-19T14:21:37.954Z,78.64
2023-02-19T14:24:29.588Z,78.66
2023-02-19T14:27:20.958Z,78.67
2023-02-19T14:30:13.232Z,78.72
2023-02-19T14:33:10.941Z,78.77
2023-02-19T14:36:05.875Z,78.81
2023-02-19T14:38:58.510Z,79.01
2023-02-19T14:41:52.281Z,78.99
2023-02-19T14:44:48.848Z,79.04
2023-02-19T14:47:43.809Z,78.91
2023-02-19T14:50:36.511Z,78.89
2023-02-19T14:53:29.259Z,78.94
2023-02-19T14:56:22.661Z,78.86
2023-02-19T14:59:26.787Z,78.83
2023-02-19T15:02:20.837Z,78.81
2023-02-19T15:05:17.738Z,78.80
2023-02-19T15:08:13.376Z,78.77
2023-02-19T15:11:05.703Z,78.71
2023-02-19T15:13:51.040Z,78.63
2023-02-19T15:16:36.572Z,78.59
2023-02-19T15:19:29.644Z,78.56
2023-02-19T15:22:22.354Z,78.54
2023-02-19T15:25:17.184Z,78.44
2023-02-19T15:28:19.586Z,78.41
2023-02-19T15:31:07.943Z,78.65
2023-02-19T15:33:59.323Z,78.94
2023-02-19T15:36:51.264Z,79.18
2023-02-19T15:39:44.839Z,79.24
2023-02-19T15:42:37.239Z,79.24
2023-02-19T15:45:30.624Z,79.26
2023-02-19T15:48:25.319Z,79.37
2023-02-19T15:51:17.856Z,79.44
2023-02-19T15:54:04.525Z,79.78
2023-02-19T15:56:57.542Z,79.66
2023-02-19T15:59:51.537Z,79.81
2023-02-19T16:02:42.759Z,79.82
2023-02-19T16:05:39.976Z,79.86
2023-02-19T16:08:23.743Z,79.86
2023-02-19T16:11:29.041Z,79.93
2023-02-19T16:14:24.072Z,79.89
2023-02-19T16:17:18.891Z,79.87
2023-02-19T16:20:18.309Z,79.96
2023-02-19T16:23:14.374Z,79.96
2023-02-19T16:26:05.890Z,79.92
2023-02-19T16:28:56.857Z,79.87
2023-02-19T16:31:50.878Z,79.91
2023-02-19T16:34:43.577Z,79.89
2023-02-19T16:37:36.555Z,79.73
2023-02-19T16:40:52.464Z,79.45
2023-02-19T16:43:46.308Z,79.31
2023-02-19T16:46:40.961Z,79.27
2023-02-19T16:50:52.456Z,79.20
2023-02-19T16:52:55.335Z,79.20
2023-02-19T16:55:37.552Z,79.20
2023-02-19T16:58:28.726Z,79.23
2023-02-19T17:01:20.208Z,79.24
2023-02-19T17:04:12.778Z,79.24
2023-02-19T17:07:04.209Z,79.24
2023-02-19T17:09:56.306Z,79.23
2023-02-19T17:12:48.529Z,79.20
2023-02-19T17:15:32.469Z,79.18
2023-02-19T17:18:23.865Z,79.19
2023-02-19T17:21:18.250Z,79.17
2023-02-19T17:24:09.520Z,79.15
2023-02-19T17:26:59.027Z,79.22
2023-02-19T17:29:50.141Z,79.31
2023-02-19T17:32:41.663Z,79.33
2023-02-19T17:35:32.780Z,79.33
2023-02-19T17:38:24.025Z,79.27
2023-02-19T17:41:15.170Z,79.20
2023-02-19T17:44:08.894Z,79.19
2023-02-19T17:46:52.698Z,79.16
2023-02-19T17:49:44.350Z,79.18
2023-02-19T17:52:29.423Z,79.15
2023-02-19T17:55:20.561Z,79.16
2023-02-19T17:58:12.578Z,79.10
2023-02-19T18:01:06.332Z,79.15
2023-02-19T18:03:57.506Z,79.15
2023-02-19T18:06:49.172Z,79.13
2023-02-19T18:09:41.134Z,79.15
2023-02-19T18:12:32.328Z,79.11
2023-02-19T18:15:26.289Z,79.09
2023-02-19T18:18:12.451Z,79.06
2023-02-19T18:21:03.645Z,78.96
2023-02-19T18:23:54.807Z,78.89
2023-02-19T18:26:48.068Z,78.80
2023-02-19T18:29:39.216Z,78.69
2023-02-19T18:32:31.839Z,78.59
2023-02-19T18:35:23.399Z,78.39
2023-02-19T18:38:14.423Z,78.32
2023-02-19T18:41:06.631Z,78.24
2023-02-19T18:43:59.626Z,78.12
2023-02-19T18:46:52.476Z,78.03
2023-02-19T18:49:36.397Z,77.97
2023-02-19T18:52:27.464Z,77.92
2023-02-19T18:55:18.663Z,77.92
2023-02-19T18:57:59.787Z,77.92
2023-02-19T19:00:50.867Z,77.94
2023-02-19T19:03:41.942Z,77.98
2023-02-19T19:06:33.374Z,77.99
2023-02-19T19:09:14.376Z,77.99
2023-02-19T19:11:57.007Z,77.93
2023-02-19T19:14:40.782Z,77.92
2023-02-19T19:17:31.825Z,78.03
2023-02-19T19:20:23.878Z,78.09
2023-02-19T19:23:14.894Z,78.05
2023-02-19T19:26:08.207Z,77.98
2023-02-19T19:28:59.282Z,77.86
2023-02-19T19:31:51.792Z,77.79
2023-02-19T19:34:43.813Z,77.67
2023-02-19T19:37:35.046Z,77.61
2023-02-19T19:40:26.148Z,77.50
2023-02-19T19:43:16.904Z,77.38
2023-02-19T19:46:08.822Z,77.25
2023-02-19T19:49:00.277Z,77.11
2023-02-19T19:51:51.737Z,76.94
2023-02-19T19:54:43.759Z,76.81
2023-02-19T19:57:35.262Z,76.76
2023-02-19T20:00:26.619Z,76.62
2023-02-19T20:03:18.692Z,76.60
2023-02-19T20:06:09.833Z,76.62
2023-02-19T20:09:01.964Z,76.58
2023-02-19T20:11:54.546Z,76.51
2023-02-19T20:14:48.276Z,76.48
2023-02-19T20:17:40.543Z,76.43
2023-02-19T20:20:31.806Z,76.38
2023-02-19T20:23:22.905Z,76.36
2023-02-19T20:26:05.558Z,76.36
2023-02-19T20:28:57.207Z,76.27
2023-02-19T20:31:51.393Z,76.22
2023-02-19T20:34:41.134Z,76.19
2023-02-19T20:37:32.309Z,76.15
2023-02-19T20:40:27.488Z,76.14
2023-02-19T20:43:19.632Z,76.11
2023-02-19T20:46:12.097Z,76.05
2023-02-19T20:49:03.394Z,75.85
2023-02-19T20:51:56.224Z,75.70
2023-02-19T20:54:47.315Z,75.61
2023-02-19T20:57:38.742Z,75.53
2023-02-19T21:00:30.053Z,75.53
2023-02-19T21:03:21.196Z,75.39
2023-02-19T21:06:12.648Z,75.17
2023-02-19T21:09:05.794Z,75.09
2023-02-19T21:11:58.546Z,75.08
2023-02-19T21:14:49.886Z,75.05
2023-02-19T21:17:41.071Z,74.89
2023-02-19T21:20:32.248Z,74.94
2023-02-19T21:23:24.408Z,74.94
2023-02-19T21:26:15.560Z,74.86
2023-02-19T21:29:07.070Z,74.82
2023-02-19T21:31:59.194Z,74.77
2023-02-19T21:34:50.304Z,74.80
2023-02-19T21:37:26.943Z,74.82
2023-02-19T21:40:18.097Z,74.88
2023-02-19T21:43:09.975Z,74.92
2023-02-19T21:46:01.081Z,74.99
2023-02-19T21:48:52.502Z,75.11
2023-02-19T21:51:44.551Z,75.14
2023-02-19T21:54:37.286Z,75.21
2023-02-19T21:57:29.323Z,75.24
2023-02-19T22:00:22.200Z,75.27
2023-02-19T22:03:16.170Z,75.30
2023-02-19T22:06:08.139Z,75.31
2023-02-19T22:08:58.093Z,75.32
2023-02-19T22:11:49.594Z,75.37
2023-02-19T22:14:41.782Z,75.39
2023-02-19T22:17:32.940Z,75.37
2023-02-19T22:20:24.139Z,75.36
2023-02-19T22:23:15.760Z,75.39
2023-02-19T22:26:06.991Z,75.45
2023-02-19T22:28:51.425Z,75.45
2023-02-19T22:31:42.798Z,75.45
2023-02-19T22:34:33.994Z,75.44
2023-02-19T22:37:25.061Z,75.44
2023-02-19T22:40:16.410Z,75.37
2023-02-19T22:43:07.495Z,75.30
2023-02-19T22:45:58.574Z,75.30
2023-02-19T22:48:49.781Z,75.29
2023-02-19T22:51:41.082Z,75.31
2023-02-19T22:54:32.200Z,75.34
2023-02-19T22:57:23.435Z,75.32
2023-02-19T23:00:20.963Z,75.34
2023-02-19T23:03:12.018Z,75.34
2023-02-19T23:06:05.420Z,75.33
2023-02-19T23:08:58.329Z,75.34
2023-02-19T23:11:49.553Z,75.38
2023-02-19T23:14:40.592Z,75.40
2023-02-19T23:17:31.725Z,75.42
2023-02-19T23:20:22.896Z,75.47
2023-02-19T23:23:14.044Z,75.46
2023-02-19T23:26:05.558Z,75.51
2023-02-19T23:28:56.988Z,75.52
2023-02-19T23:31:48.461Z,75.55
2023-02-19T23:34:39.609Z,75.54
2023-02-19T23:37:30.815Z,75.58
2023-02-19T23:40:15.651Z,75.60
2023-02-19T23:43:06.668Z,75.65
2023-02-19T23:45:57.856Z,75.84
2023-02-19T23:48:49.111Z,75.57
2023-02-19T23:51:41.364Z,75.46
2023-02-19T23:54:32.639Z,75.43
2023-02-19T23:57:24.056Z,75.43
